sensor_id;sensor_type;location;lat;lon;timestamp;P1;durP1;ratioP1;P2;durP2;ratioP2
6519;SDS011;3293;51.690;5.982;2022-08-21T00:04:48;9.43;;;4.93;;
6519;SDS011;3293;51.690;5.982;2022-08-21T00:09:49;9.10;;;5.40;;
6519;SDS011;3293;51.690;5.982;2022-08-21T00:14:49;7.03;;;5.40;;
6519;SDS011;3293;51.690;5.982;2022-08-21T00:19:50;7.33;;;5.20;;
6519;SDS011;3293;51.690;5.982;2022-08-21T00:24:50;7.07;;;5.50;;
6519;SDS011;3293;51.690;5.982;2022-08-21T00:29:50;6.47;;;5.70;;
6519;SDS011;3293;51.690;5.982;2022-08-21T00:34:52;7.93;;;5.60;;
6519;SDS011;3293;51.690;5.982;2022-08-21T00:39:53;8.30;;;5.60;;
6519;SDS011;3293;51.690;5.982;2022-08-21T00:44:53;12.10;;;6.30;;
6519;SDS011;3293;51.690;5.982;2022-08-21T00:49:54;6.47;;;5.73;;
6519;SDS011;3293;51.690;5.982;2022-08-21T00:54:54;8.27;;;6.73;;
6519;SDS011;3293;51.690;5.982;2022-08-21T00:59:58;7.33;;;5.90;;
6519;SDS011;3293;51.690;5.982;2022-08-21T01:05:00;7.03;;;5.80;;
6519;SDS011;3293;51.690;5.982;2022-08-21T01:10:00;8.57;;;6.07;;
6519;SDS011;3293;51.690;5.982;2022-08-21T01:15:01;8.37;;;6.77;;
6519;SDS011;3293;51.690;5.982;2022-08-21T01:20:04;13.80;;;6.67;;
6519;SDS011;3293;51.690;5.982;2022-08-21T01:25:07;9.80;;;7.37;;
6519;SDS011;3293;51.690;5.982;2022-08-21T01:30:10;8.37;;;6.70;;
6519;SDS011;3293;51.690;5.982;2022-08-21T01:35:16;8.27;;;5.90;;
6519;SDS011;3293;51.690;5.982;2022-08-21T01:40:18;8.77;;;5.77;;
6519;SDS011;3293;51.690;5.982;2022-08-21T01:45:18;5.60;;;5.10;;
6519;SDS011;3293;51.690;5.982;2022-08-21T01:50:19;7.10;;;5.23;;
6519;SDS011;3293;51.690;5.982;2022-08-21T01:55:20;9.97;;;6.53;;
6519;SDS011;3293;51.690;5.982;2022-08-21T02:00:21;6.83;;;6.13;;
6519;SDS011;3293;51.690;5.982;2022-08-21T02:05:24;8.33;;;5.83;;
6519;SDS011;3293;51.690;5.982;2022-08-21T02:10:25;8.57;;;6.63;;
6519;SDS011;3293;51.690;5.982;2022-08-21T02:15:28;8.70;;;7.60;;
6519;SDS011;3293;51.690;5.982;2022-08-21T02:20:30;11.07;;;7.67;;
6519;SDS011;3293;51.690;5.982;2022-08-21T02:25:35;10.37;;;7.10;;
6519;SDS011;3293;51.690;5.982;2022-08-21T02:30:38;10.93;;;7.40;;
6519;SDS011;3293;51.690;5.982;2022-08-21T02:35:42;9.27;;;7.23;;
6519;SDS011;3293;51.690;5.982;2022-08-21T02:40:44;8.83;;;7.90;;
6519;SDS011;3293;51.690;5.982;2022-08-21T02:45:46;10.37;;;6.50;;
6519;SDS011;3293;51.690;5.982;2022-08-21T02:50:47;9.67;;;6.23;;
6519;SDS011;3293;51.690;5.982;2022-08-21T02:55:52;8.13;;;6.03;;
6519;SDS011;3293;51.690;5.982;2022-08-21T03:00:52;7.60;;;5.97;;
6519;SDS011;3293;51.690;5.982;2022-08-21T03:05:52;8.50;;;6.50;;
6519;SDS011;3293;51.690;5.982;2022-08-21T03:10:52;10.10;;;7.20;;
6519;SDS011;3293;51.690;5.982;2022-08-21T03:15:53;9.43;;;7.30;;
6519;SDS011;3293;51.690;5.982;2022-08-21T03:20:53;8.57;;;6.87;;
6519;SDS011;3293;51.690;5.982;2022-08-21T03:25:53;8.83;;;7.87;;
6519;SDS011;3293;51.690;5.982;2022-08-21T03:30:53;10.30;;;7.57;;
6519;SDS011;3293;51.690;5.982;2022-08-21T03:36:00;9.50;;;7.37;;
6519;SDS011;3293;51.690;5.982;2022-08-21T03:41:03;11.70;;;7.87;;
6519;SDS011;3293;51.690;5.982;2022-08-21T03:46:05;11.13;;;8.00;;
6519;SDS011;3293;51.690;5.982;2022-08-21T03:51:06;12.43;;;8.73;;
6519;SDS011;3293;51.690;5.982;2022-08-21T03:56:06;10.13;;;8.60;;
6519;SDS011;3293;51.690;5.982;2022-08-21T04:01:06;12.17;;;9.53;;
6519;SDS011;3293;51.690;5.982;2022-08-21T04:06:06;13.73;;;9.90;;
6519;SDS011;3293;51.690;5.982;2022-08-21T04:11:06;14.33;;;8.40;;
6519;SDS011;3293;51.690;5.982;2022-08-21T04:16:07;19.03;;;9.97;;
6519;SDS011;3293;51.690;5.982;2022-08-21T04:21:07;9.90;;;8.33;;
6519;SDS011;3293;51.690;5.982;2022-08-21T04:26:09;12.47;;;9.30;;
6519;SDS011;3293;51.690;5.982;2022-08-21T04:31:10;14.37;;;9.27;;
6519;SDS011;3293;51.690;5.982;2022-08-21T04:36:10;12.83;;;9.20;;
6519;SDS011;3293;51.690;5.982;2022-08-21T04:41:11;14.13;;;9.60;;
6519;SDS011;3293;51.690;5.982;2022-08-21T04:46:11;17.10;;;11.17;;
6519;SDS011;3293;51.690;5.982;2022-08-21T04:51:19;15.60;;;12.17;;
6519;SDS011;3293;51.690;5.982;2022-08-21T04:56:31;14.80;;;12.83;;
6519;SDS011;3293;51.690;5.982;2022-08-21T05:01:35;15.67;;;13.37;;
6519;SDS011;3293;51.690;5.982;2022-08-21T05:06:37;17.27;;;14.13;;
6519;SDS011;3293;51.690;5.982;2022-08-21T05:11:41;20.33;;;18.10;;
6519;SDS011;3293;51.690;5.982;2022-08-21T05:16:42;29.50;;;20.87;;
6519;SDS011;3293;51.690;5.982;2022-08-21T05:21:44;23.57;;;19.97;;
6519;SDS011;3293;51.690;5.982;2022-08-21T05:26:46;29.53;;;20.77;;
6519;SDS011;3293;51.690;5.982;2022-08-21T05:31:47;29.80;;;19.53;;
6519;SDS011;3293;51.690;5.982;2022-08-21T05:36:47;23.43;;;17.47;;
6519;SDS011;3293;51.690;5.982;2022-08-21T05:41:47;19.03;;;14.07;;
6519;SDS011;3293;51.690;5.982;2022-08-21T05:46:48;18.57;;;12.00;;
6519;SDS011;3293;51.690;5.982;2022-08-21T05:51:48;13.20;;;11.23;;
6519;SDS011;3293;51.690;5.982;2022-08-21T05:56:48;12.85;;;10.20;;
6519;SDS011;3293;51.690;5.982;2022-08-21T06:01:48;13.45;;;9.20;;
6519;SDS011;3293;51.690;5.982;2022-08-21T06:06:48;11.18;;;8.93;;
6519;SDS011;3293;51.690;5.982;2022-08-21T06:11:48;10.57;;;8.63;;
6519;SDS011;3293;51.690;5.982;2022-08-21T06:16:48;11.00;;;8.00;;
6519;SDS011;3293;51.690;5.982;2022-08-21T06:21:48;8.80;;;7.50;;
6519;SDS011;3293;51.690;5.982;2022-08-21T06:26:48;9.43;;;6.50;;
6519;SDS011;3293;51.690;5.982;2022-08-21T06:31:49;10.65;;;6.78;;
6519;SDS011;3293;51.690;5.982;2022-08-21T06:36:51;10.85;;;5.88;;
6519;SDS011;3293;51.690;5.982;2022-08-21T06:41:51;10.80;;;5.63;;
6519;SDS011;3293;51.690;5.982;2022-08-21T06:46:51;7.82;;;5.40;;
6519;SDS011;3293;51.690;5.982;2022-08-21T06:51:51;10.02;;;5.32;;
6519;SDS011;3293;51.690;5.982;2022-08-21T06:56:51;10.45;;;5.57;;
6519;SDS011;3293;51.690;5.982;2022-08-21T07:01:51;11.57;;;5.00;;
6519;SDS011;3293;51.690;5.982;2022-08-21T07:06:51;10.15;;;5.00;;
6519;SDS011;3293;51.690;5.982;2022-08-21T07:11:52;10.75;;;4.82;;
6519;SDS011;3293;51.690;5.982;2022-08-21T07:16:54;11.80;;;4.80;;
6519;SDS011;3293;51.690;5.982;2022-08-21T07:21:55;7.38;;;4.32;;
6519;SDS011;3293;51.690;5.982;2022-08-21T07:26:58;8.57;;;4.57;;
6519;SDS011;3293;51.690;5.982;2022-08-21T07:31:58;10.05;;;4.82;;
6519;SDS011;3293;51.690;5.982;2022-08-21T07:36:58;10.38;;;4.85;;
6519;SDS011;3293;51.690;5.982;2022-08-21T07:41:58;8.63;;;4.63;;
6519;SDS011;3293;51.690;5.982;2022-08-21T07:46:58;12.23;;;4.25;;
6519;SDS011;3293;51.690;5.982;2022-08-21T07:51:58;6.32;;;4.32;;
6519;SDS011;3293;51.690;5.982;2022-08-21T07:56:59;9.50;;;4.50;;
6519;SDS011;3293;51.690;5.982;2022-08-21T08:01:58;9.52;;;4.68;;
6519;SDS011;3293;51.690;5.982;2022-08-21T08:06:58;12.48;;;5.38;;
6519;SDS011;3293;51.690;5.982;2022-08-21T08:11:58;11.05;;;4.55;;
6519;SDS011;3293;51.690;5.982;2022-08-21T08:16:58;13.80;;;5.70;;
6519;SDS011;3293;51.690;5.982;2022-08-21T08:21:58;16.35;;;5.10;;
6519;SDS011;3293;51.690;5.982;2022-08-21T08:26:58;12.35;;;4.75;;
6519;SDS011;3293;51.690;5.982;2022-08-21T08:31:58;9.57;;;5.00;;
6519;SDS011;3293;51.690;5.982;2022-08-21T08:36:58;12.98;;;4.88;;
6519;SDS011;3293;51.690;5.982;2022-08-21T08:41:59;12.82;;;5.05;;
6519;SDS011;3293;51.690;5.982;2022-08-21T08:47:06;13.57;;;4.68;;
6519;SDS011;3293;51.690;5.982;2022-08-21T08:52:09;9.73;;;4.78;;
6519;SDS011;3293;51.690;5.982;2022-08-21T08:57:14;9.73;;;3.97;;
6519;SDS011;3293;51.690;5.982;2022-08-21T09:02:17;8.82;;;3.58;;
6519;SDS011;3293;51.690;5.982;2022-08-21T09:28:15;7.53;;;3.10;;
6519;SDS011;3293;51.690;5.982;2022-08-21T09:33:15;5.93;;;2.85;;
6519;SDS011;3293;51.690;5.982;2022-08-21T09:38:24;5.72;;;3.05;;
6519;SDS011;3293;51.690;5.982;2022-08-21T09:43:27;7.38;;;2.92;;
6519;SDS011;3293;51.690;5.982;2022-08-21T09:48:27;5.78;;;2.92;;
6519;SDS011;3293;51.690;5.982;2022-08-21T09:53:29;8.32;;;2.83;;
6519;SDS011;3293;51.690;5.982;2022-08-21T09:58:31;5.00;;;2.35;;
6519;SDS011;3293;51.690;5.982;2022-08-21T10:03:33;10.20;;;2.90;;
6519;SDS011;3293;51.690;5.982;2022-08-21T10:08:33;8.40;;;3.08;;
6519;SDS011;3293;51.690;5.982;2022-08-21T10:24:27;7.75;;;3.20;;
6519;SDS011;3293;51.690;5.982;2022-08-21T10:35:25;6.88;;;2.33;;
6519;SDS011;3293;51.690;5.982;2022-08-21T10:40:33;10.35;;;2.80;;
6519;SDS011;3293;51.690;5.982;2022-08-21T10:51:10;6.28;;;2.22;;
6519;SDS011;3293;51.690;5.982;2022-08-21T11:01:18;5.15;;;2.15;;
6519;SDS011;3293;51.690;5.982;2022-08-21T11:06:27;8.25;;;2.70;;
6519;SDS011;3293;51.690;5.982;2022-08-21T11:11:31;6.88;;;2.10;;
6519;SDS011;3293;51.690;5.982;2022-08-21T11:16:39;6.55;;;2.45;;
6519;SDS011;3293;51.690;5.982;2022-08-21T11:27:26;9.77;;;2.30;;
6519;SDS011;3293;51.690;5.982;2022-08-21T11:33:03;6.00;;;2.25;;
6519;SDS011;3293;51.690;5.982;2022-08-21T11:59:25;5.15;;;2.08;;
6519;SDS011;3293;51.690;5.982;2022-08-21T12:04:47;7.97;;;2.38;;
6519;SDS011;3293;51.690;5.982;2022-08-21T12:09:54;5.32;;;2.72;;
6519;SDS011;3293;51.690;5.982;2022-08-21T12:25:21;5.88;;;2.38;;
6519;SDS011;3293;51.690;5.982;2022-08-21T12:30:43;5.38;;;2.28;;
6519;SDS011;3293;51.690;5.982;2022-08-21T12:35:43;4.15;;;2.10;;
6519;SDS011;3293;51.690;5.982;2022-08-21T12:45:50;6.75;;;2.58;;
6519;SDS011;3293;51.690;5.982;2022-08-21T12:50:58;3.88;;;2.55;;
6519;SDS011;3293;51.690;5.982;2022-08-21T12:56:26;6.70;;;2.47;;
6519;SDS011;3293;51.690;5.982;2022-08-21T13:01:29;5.68;;;2.40;;
6519;SDS011;3293;51.690;5.982;2022-08-21T13:06:43;5.68;;;2.42;;
6519;SDS011;3293;51.690;5.982;2022-08-21T13:11:45;9.10;;;3.15;;
6519;SDS011;3293;51.690;5.982;2022-08-21T13:16:48;7.93;;;2.95;;
6519;SDS011;3293;51.690;5.982;2022-08-21T13:21:53;6.88;;;2.72;;
6519;SDS011;3293;51.690;5.982;2022-08-21T13:26:53;7.05;;;2.60;;
6519;SDS011;3293;51.690;5.982;2022-08-21T13:31:55;6.40;;;2.72;;
6519;SDS011;3293;51.690;5.982;2022-08-21T13:36:58;7.05;;;2.60;;
6519;SDS011;3293;51.690;5.982;2022-08-21T13:42:01;5.85;;;2.47;;
6519;SDS011;3293;51.690;5.982;2022-08-21T13:47:04;3.67;;;2.13;;
6519;SDS011;3293;51.690;5.982;2022-08-21T13:52:05;9.30;;;2.50;;
6519;SDS011;3293;51.690;5.982;2022-08-21T13:57:17;4.30;;;2.10;;
6519;SDS011;3293;51.690;5.982;2022-08-21T14:02:29;7.55;;;2.33;;
6519;SDS011;3293;51.690;5.982;2022-08-21T14:07:40;6.93;;;2.60;;
6519;SDS011;3293;51.690;5.982;2022-08-21T14:12:42;4.72;;;2.30;;
6519;SDS011;3293;51.690;5.982;2022-08-21T14:17:46;5.97;;;2.25;;
6519;SDS011;3293;51.690;5.982;2022-08-21T14:22:47;4.97;;;2.40;;
6519;SDS011;3293;51.690;5.982;2022-08-21T14:27:54;6.53;;;2.20;;
6519;SDS011;3293;51.690;5.982;2022-08-21T14:32:56;5.45;;;2.10;;
6519;SDS011;3293;51.690;5.982;2022-08-21T14:37:56;5.90;;;2.35;;
6519;SDS011;3293;51.690;5.982;2022-08-21T14:42:56;6.03;;;2.10;;
6519;SDS011;3293;51.690;5.982;2022-08-21T14:47:57;6.53;;;2.20;;
6519;SDS011;3293;51.690;5.982;2022-08-21T14:52:57;7.20;;;2.55;;
6519;SDS011;3293;51.690;5.982;2022-08-21T14:57:58;6.93;;;2.10;;
6519;SDS011;3293;51.690;5.982;2022-08-21T15:02:59;5.30;;;2.13;;
6519;SDS011;3293;51.690;5.982;2022-08-21T15:07:59;4.07;;;2.00;;
6519;SDS011;3293;51.690;5.982;2022-08-21T15:12:59;4.55;;;2.25;;
6519;SDS011;3293;51.690;5.982;2022-08-21T15:18:00;6.53;;;3.28;;
6519;SDS011;3293;51.690;5.982;2022-08-21T15:23:00;8.90;;;4.15;;
6519;SDS011;3293;51.690;5.982;2022-08-21T15:28:00;6.80;;;2.65;;
6519;SDS011;3293;51.690;5.982;2022-08-21T15:33:01;8.35;;;3.75;;
6519;SDS011;3293;51.690;5.982;2022-08-21T15:38:02;7.50;;;4.43;;
6519;SDS011;3293;51.690;5.982;2022-08-21T15:43:03;10.98;;;7.75;;
6519;SDS011;3293;51.690;5.982;2022-08-21T15:48:04;3.85;;;2.33;;
6519;SDS011;3293;51.690;5.982;2022-08-21T15:53:05;7.20;;;2.97;;
6519;SDS011;3293;51.690;5.982;2022-08-21T15:58:05;9.75;;;3.03;;
6519;SDS011;3293;51.690;5.982;2022-08-21T16:03:06;6.88;;;3.42;;
6519;SDS011;3293;51.690;5.982;2022-08-21T16:08:11;7.82;;;3.63;;
6519;SDS011;3293;51.690;5.982;2022-08-21T16:13:34;6.88;;;2.35;;
6519;SDS011;3293;51.690;5.982;2022-08-21T16:18:37;5.07;;;2.50;;
6519;SDS011;3293;51.690;5.982;2022-08-21T16:23:38;6.05;;;2.35;;
6519;SDS011;3293;51.690;5.982;2022-08-21T16:28:40;5.90;;;2.67;;
6519;SDS011;3293;51.690;5.982;2022-08-21T16:33:43;6.68;;;2.83;;
6519;SDS011;3293;51.690;5.982;2022-08-21T16:38:48;6.68;;;2.33;;
6519;SDS011;3293;51.690;5.982;2022-08-21T16:43:48;4.93;;;2.28;;
6519;SDS011;3293;51.690;5.982;2022-08-21T16:48:50;7.10;;;2.63;;
6519;SDS011;3293;51.690;5.982;2022-08-21T16:53:50;4.32;;;2.10;;
6519;SDS011;3293;51.690;5.982;2022-08-21T16:58:52;5.03;;;2.47;;
6519;SDS011;3293;51.690;5.982;2022-08-21T17:03:53;7.82;;;2.60;;
6519;SDS011;3293;51.690;5.982;2022-08-21T17:08:53;4.20;;;2.60;;
6519;SDS011;3293;51.690;5.982;2022-08-21T17:13:54;5.20;;;2.60;;
6519;SDS011;3293;51.690;5.982;2022-08-21T17:18:55;5.10;;;2.83;;
6519;SDS011;3293;51.690;5.982;2022-08-21T17:23:55;7.07;;;2.75;;
6519;SDS011;3293;51.690;5.982;2022-08-21T17:28:55;6.22;;;2.80;;
6519;SDS011;3293;51.690;5.982;2022-08-21T17:33:55;4.80;;;2.50;;
6519;SDS011;3293;51.690;5.982;2022-08-21T17:38:55;7.00;;;3.03;;
6519;SDS011;3293;51.690;5.982;2022-08-21T17:43:56;7.00;;;2.72;;
6519;SDS011;3293;51.690;5.982;2022-08-21T17:48:58;6.10;;;2.50;;
6519;SDS011;3293;51.690;5.982;2022-08-21T17:53:58;6.65;;;2.80;;
6519;SDS011;3293;51.690;5.982;2022-08-21T17:58:58;5.05;;;2.70;;
6519;SDS011;3293;51.690;5.982;2022-08-21T18:03:58;4.07;;;2.63;;
6519;SDS011;3293;51.690;5.982;2022-08-21T18:08:59;6.60;;;2.70;;
6519;SDS011;3293;51.690;5.982;2022-08-21T18:14:00;5.05;;;2.85;;
6519;SDS011;3293;51.690;5.982;2022-08-21T18:19:02;8.27;;;2.65;;
6519;SDS011;3293;51.690;5.982;2022-08-21T18:24:04;5.70;;;2.63;;
6519;SDS011;3293;51.690;5.982;2022-08-21T18:29:05;7.07;;;2.47;;
6519;SDS011;3293;51.690;5.982;2022-08-21T18:34:09;6.70;;;2.90;;
6519;SDS011;3293;51.690;5.982;2022-08-21T18:39:20;7.60;;;2.90;;
6519;SDS011;3293;51.690;5.982;2022-08-21T18:44:21;7.78;;;2.80;;
6519;SDS011;3293;51.690;5.982;2022-08-21T18:49:26;9.50;;;3.30;;
6519;SDS011;3293;51.690;5.982;2022-08-21T18:54:26;7.00;;;3.10;;
6519;SDS011;3293;51.690;5.982;2022-08-21T18:59:27;10.82;;;2.88;;
6519;SDS011;3293;51.690;5.982;2022-08-21T19:04:28;7.13;;;2.70;;
6519;SDS011;3293;51.690;5.982;2022-08-21T19:09:28;7.85;;;3.30;;
6519;SDS011;3293;51.690;5.982;2022-08-21T19:14:28;6.22;;;2.95;;
6519;SDS011;3293;51.690;5.982;2022-08-21T19:19:28;6.95;;;2.72;;
6519;SDS011;3293;51.690;5.982;2022-08-21T19:24:28;9.50;;;2.80;;
6519;SDS011;3293;51.690;5.982;2022-08-21T19:29:28;8.85;;;3.05;;
6519;SDS011;3293;51.690;5.982;2022-08-21T19:34:28;7.00;;;3.00;;
6519;SDS011;3293;51.690;5.982;2022-08-21T19:39:29;9.27;;;3.30;;
6519;SDS011;3293;51.690;5.982;2022-08-21T19:44:30;6.63;;;2.67;;
6519;SDS011;3293;51.690;5.982;2022-08-21T19:49:32;6.82;;;2.85;;
6519;SDS011;3293;51.690;5.982;2022-08-21T19:54:33;10.65;;;3.10;;
6519;SDS011;3293;51.690;5.982;2022-08-21T19:59:34;5.80;;;3.10;;
6519;SDS011;3293;51.690;5.982;2022-08-21T20:04:35;6.10;;;3.20;;
6519;SDS011;3293;51.690;5.982;2022-08-21T20:09:35;6.90;;;3.22;;
6519;SDS011;3293;51.690;5.982;2022-08-21T20:14:37;6.65;;;3.22;;
6519;SDS011;3293;51.690;5.982;2022-08-21T20:19:42;11.02;;;3.15;;
6519;SDS011;3293;51.690;5.982;2022-08-21T20:24:44;3.55;;;2.60;;
6519;SDS011;3293;51.690;5.982;2022-08-21T20:29:45;5.88;;;2.95;;
6519;SDS011;3293;51.690;5.982;2022-08-21T20:34:45;6.20;;;2.80;;
6519;SDS011;3293;51.690;5.982;2022-08-21T20:39:45;4.43;;;3.00;;
6519;SDS011;3293;51.690;5.982;2022-08-21T20:44:45;5.75;;;3.10;;
6519;SDS011;3293;51.690;5.982;2022-08-21T20:49:47;5.78;;;2.65;;
6519;SDS011;3293;51.690;5.982;2022-08-21T20:54:56;7.88;;;3.08;;
6519;SDS011;3293;51.690;5.982;2022-08-21T21:00:04;6.63;;;3.33;;
6519;SDS011;3293;51.690;5.982;2022-08-21T21:10:26;5.03;;;2.90;;
6519;SDS011;3293;51.690;5.982;2022-08-21T21:15:28;6.60;;;3.22;;
6519;SDS011;3293;51.690;5.982;2022-08-21T21:20:36;11.48;;;3.80;;
6519;SDS011;3293;51.690;5.982;2022-08-21T21:25:47;8.38;;;3.35;;
6519;SDS011;3293;51.690;5.982;2022-08-21T21:30:53;8.45;;;3.40;;
6519;SDS011;3293;51.690;5.982;2022-08-21T21:35:56;10.20;;;3.67;;
6519;SDS011;3293;51.690;5.982;2022-08-21T21:41:16;7.15;;;4.25;;
6519;SDS011;3293;51.690;5.982;2022-08-21T21:51:55;6.75;;;3.58;;
6519;SDS011;3293;51.690;5.982;2022-08-21T22:02:42;7.63;;;3.45;;
6519;SDS011;3293;51.690;5.982;2022-08-21T22:07:52;8.40;;;3.58;;
6519;SDS011;3293;51.690;5.982;2022-08-21T22:13:05;6.72;;;4.07;;
6519;SDS011;3293;51.690;5.982;2022-08-21T22:18:15;8.15;;;3.58;;
6519;SDS011;3293;51.690;5.982;2022-08-21T22:23:19;8.18;;;3.88;;
6519;SDS011;3293;51.690;5.982;2022-08-21T22:28:24;9.50;;;3.65;;
6519;SDS011;3293;51.690;5.982;2022-08-21T22:33:26;7.55;;;3.80;;
6519;SDS011;3293;51.690;5.982;2022-08-21T22:38:32;9.77;;;3.50;;
6519;SDS011;3293;51.690;5.982;2022-08-21T22:43:35;7.03;;;3.72;;
6519;SDS011;3293;51.690;5.982;2022-08-21T22:48:36;6.97;;;3.47;;
6519;SDS011;3293;51.690;5.982;2022-08-21T22:53:39;7.13;;;3.85;;
6519;SDS011;3293;51.690;5.982;2022-08-21T22:59:00;6.22;;;3.70;;
6519;SDS011;3293;51.690;5.982;2022-08-21T23:04:15;9.80;;;3.85;;
6519;SDS011;3293;51.690;5.982;2022-08-21T23:14:26;9.15;;;4.05;;
6519;SDS011;3293;51.690;5.982;2022-08-21T23:30:10;6.65;;;3.30;;
6519;SDS011;3293;51.690;5.982;2022-08-21T23:35:15;5.93;;;3.53;;
6519;SDS011;3293;51.690;5.982;2022-08-21T23:40:51;8.40;;;3.90;;
6519;SDS011;3293;51.690;5.982;2022-08-21T23:51:42;7.15;;;3.50;;
6519;SDS011;3293;51.690;5.982;2022-08-21T23:57:21;7.47;;;3.60;;
